Time;durP1;ratioP1;P1;durP2;ratioP2;P2;SDS_P1;SDS_P2;PMS_P1;PMS_P2;Temp;Humidity;BMP_temperature;BMP_pressure;BME280_temperature;BME280_humidity;BME280_pressure;Samples;Min_cycle;Max_cycle;Signal;HPM_P1;HPM_P2
2023/02/11 00:00:32;;;;;;;53.15;21.20;;;;;;;;;;5033695;28;20065;-79
2023/02/11 00:02:58;;;;;;;53.42;21.13;;;;;;;;;;5013847;28;20045;-79
2023/02/11 00:05:25;;;;;;;55.72;20.38;;;;;;;;;;5014144;28;20515;-78
2023/02/11 00:07:51;;;;;;;50.58;21.08;;;;;;;;;;5029636;28;20056;-77
2023/02/11 00:10:18;;;;;;;51.75;20.83;;;;;;;;;;5033409;28;20393;-80
2023/02/11 00:12:44;;;;;;;54.70;21.77;;;;;;;;;;5032645;28;20513;-78
2023/02/11 00:15:11;;;;;;;55.42;21.45;;;;;;;;;;5031378;28;20054;-78
2023/02/11 00:17:37;;;;;;;49.70;21.23;;;;;;;;;;5030556;28;20056;-79
2023/02/11 00:20:04;;;;;;;57.70;22.98;;;;;;;;;;5032334;28;20140;-79
2023/02/11 00:22:33;;;;;;;52.92;22.50;;;;;;;;;;5032750;28;20041;-79
2023/02/11 00:25:00;;;;;;;54.53;23.08;;;;;;;;;;5031293;28;20100;-78
2023/02/11 00:27:26;;;;;;;56.60;22.85;;;;;;;;;;5030621;28;20462;-77
2023/02/11 00:29:53;;;;;;;52.90;22.45;;;;;;;;;;5013526;28;20049;-77
2023/02/11 00:32:20;;;;;;;52.75;22.02;;;;;;;;;;5031289;28;20141;-78
2023/02/11 00:34:46;;;;;;;51.78;22.27;;;;;;;;;;5031388;28;20075;-78
2023/02/11 00:37:13;;;;;;;58.30;23.70;;;;;;;;;;5029999;28;20845;-77
2023/02/11 00:39:39;;;;;;;56.10;23.45;;;;;;;;;;5030298;28;20151;-77
2023/02/11 00:42:06;;;;;;;57.50;24.05;;;;;;;;;;5031190;28;20080;-77
2023/02/11 00:44:32;;;;;;;56.80;22.98;;;;;;;;;;5030936;28;20053;-77
2023/02/11 00:46:58;;;;;;;54.08;22.63;;;;;;;;;;5012055;28;20045;-78
2023/02/11 00:49:25;;;;;;;53.05;21.90;;;;;;;;;;5030202;28;20045;-78
2023/02/11 00:51:51;;;;;;;54.50;23.80;;;;;;;;;;5030642;28;20187;-78
2023/02/11 00:54:18;;;;;;;53.42;21.30;;;;;;;;;;5012444;28;20143;-78
2023/02/11 00:56:44;;;;;;;51.47;21.98;;;;;;;;;;5030588;28;20088;-78
2023/02/11 00:59:11;;;;;;;54.45;22.20;;;;;;;;;;5030477;28;20433;-78
2023/02/11 01:01:38;;;;;;;54.10;22.75;;;;;;;;;;5030327;28;20136;-78
2023/02/11 01:04:05;;;;;;;48.83;20.95;;;;;;;;;;5012667;28;20053;-78
2023/02/11 01:06:31;;;;;;;55.05;21.67;;;;;;;;;;5032359;28;20053;-78
2023/02/11 01:08:57;;;;;;;51.95;21.83;;;;;;;;;;5032207;28;20068;-78
2023/02/11 01:11:24;;;;;;;51.17;20.30;;;;;;;;;;5031481;28;20042;-79
2023/02/11 01:13:50;;;;;;;47.67;20.40;;;;;;;;;;5031450;28;20195;-79
2023/02/11 01:16:18;;;;;;;52.40;20.30;;;;;;;;;;5013984;28;20053;-79
2023/02/11 01:18:45;;;;;;;49.92;20.80;;;;;;;;;;5032138;28;20163;-79
2023/02/11 01:21:11;;;;;;;52.75;20.40;;;;;;;;;;5015605;28;20053;-79
2023/02/11 01:23:38;;;;;;;51.47;21.25;;;;;;;;;;5015928;28;20069;-78
2023/02/11 01:26:04;;;;;;;45.50;20.67;;;;;;;;;;5030170;28;20050;-76
2023/02/11 01:28:31;;;;;;;50.63;21.02;;;;;;;;;;5030192;28;20556;-77
2023/02/11 01:30:58;;;;;;;50.47;21.75;;;;;;;;;;5030646;28;20673;-77
2023/02/11 01:33:25;;;;;;;56.72;22.83;;;;;;;;;;5029668;28;20060;-77
2023/02/11 01:35:51;;;;;;;50.67;20.55;;;;;;;;;;5031035;28;20589;-77
2023/02/11 01:38:22;;;;;;;52.60;20.67;;;;;;;;;;5029198;28;20567;-77
2023/02/11 01:40:53;;;;;;;46.53;19.90;;;;;;;;;;5030805;28;20109;-79
2023/02/11 01:43:20;;;;;;;52.75;21.35;;;;;;;;;;5031252;28;20441;-78
2023/02/11 01:45:46;;;;;;;52.03;20.75;;;;;;;;;;5030843;28;20083;-77
2023/02/11 01:48:19;;;;;;;45.00;19.92;;;;;;;;;;5028547;28;20053;-78
2023/02/11 01:50:47;;;;;;;46.53;19.33;;;;;;;;;;5030777;28;20053;-77
2023/02/11 01:58:45;;;;;;;45.65;19.70;;;;;;;;;;5032435;28;20390;-77
2023/02/11 02:01:13;;;;;;;43.08;18.05;;;;;;;;;;5032144;28;20051;-78
2023/02/11 02:03:42;;;;;;;43.53;19.40;;;;;;;;;;5028637;28;20520;-78
2023/02/11 02:06:14;;;;;;;45.38;20.52;;;;;;;;;;5013593;28;20042;-80
2023/02/11 02:08:53;;;;;;;48.67;19.83;;;;;;;;;;5011610;28;20060;-78
2023/02/11 02:11:19;;;;;;;48.28;19.45;;;;;;;;;;5030966;28;20454;-78
2023/02/11 02:13:45;;;;;;;48.00;19.75;;;;;;;;;;5029698;28;20178;-77
2023/02/11 02:16:13;;;;;;;48.80;19.92;;;;;;;;;;5030493;28;20405;-79
2023/02/11 02:18:55;;;;;;;49.45;20.83;;;;;;;;;;5031234;28;20137;-78
2023/02/11 02:21:40;;;;;;;44.17;20.73;;;;;;;;;;5031848;28;20053;-78
2023/02/11 02:24:12;;;;;;;51.03;20.60;;;;;;;;;;5029869;28;20045;-79
2023/02/11 02:26:51;;;;;;;47.45;21.08;;;;;;;;;;5031385;28;20107;-78
2023/02/11 02:29:27;;;;;;;52.83;20.73;;;;;;;;;;5032088;28;20056;-79
2023/02/11 02:32:12;;;;;;;48.55;19.70;;;;;;;;;;5013434;28;20107;-79
2023/02/11 02:34:46;;;;;;;49.33;21.48;;;;;;;;;;5030142;28;20049;-79
2023/02/11 02:37:20;;;;;;;50.25;21.30;;;;;;;;;;5030249;28;20054;-78
2023/02/11 02:39:47;;;;;;;53.50;20.25;;;;;;;;;;5028659;28;20089;-78
2023/02/11 02:42:14;;;;;;;49.30;20.67;;;;;;;;;;5030244;28;20069;-78
2023/02/11 02:44:47;;;;;;;48.60;20.30;;;;;;;;;;5028732;28;20064;-78
2023/02/11 02:47:13;;;;;;;47.78;19.23;;;;;;;;;;5010776;28;20048;-78
2023/02/11 02:49:39;;;;;;;49.35;20.33;;;;;;;;;;5029969;28;20056;-78
2023/02/11 02:52:09;;;;;;;45.85;20.17;;;;;;;;;;5029220;28;20575;-78
2023/02/11 02:54:36;;;;;;;44.38;20.13;;;;;;;;;;5028889;28;20050;-77
2023/02/11 02:57:02;;;;;;;51.17;20.42;;;;;;;;;;5028207;28;20050;-78
2023/02/11 02:59:35;;;;;;;42.67;19.77;;;;;;;;;;5031878;28;20060;-79
2023/02/11 03:02:06;;;;;;;51.30;20.85;;;;;;;;;;5013952;28;20050;-79
2023/02/11 03:04:42;;;;;;;45.20;20.40;;;;;;;;;;5013788;28;20051;-78
2023/02/11 03:07:18;;;;;;;44.90;19.95;;;;;;;;;;5028659;28;20216;-78
2023/02/11 03:09:50;;;;;;;44.58;19.75;;;;;;;;;;5029341;28;20050;-79
2023/02/11 03:12:16;;;;;;;45.50;18.83;;;;;;;;;;5011083;28;20676;-77
2023/02/11 03:14:43;;;;;;;49.70;19.58;;;;;;;;;;5011799;28;20076;-77
2023/02/11 03:17:10;;;;;;;44.65;19.95;;;;;;;;;;5027158;28;20072;-78
2023/02/11 03:19:38;;;;;;;48.55;19.90;;;;;;;;;;5027878;28;20049;-78
2023/02/11 03:22:07;;;;;;;46.65;19.80;;;;;;;;;;5027841;28;20446;-79
2023/02/11 03:24:35;;;;;;;44.88;19.15;;;;;;;;;;5027737;28;20045;-78
2023/02/11 03:27:21;;;;;;;42.38;18.20;;;;;;;;;;5027511;28;20268;-78
2023/02/11 03:29:53;;;;;;;48.88;19.23;;;;;;;;;;4991394;28;20133;-78
2023/02/11 03:32:24;;;;;;;45.10;19.35;;;;;;;;;;5031009;28;20041;-78
2023/02/11 03:34:59;;;;;;;42.08;18.90;;;;;;;;;;5031462;28;20057;-78
2023/02/11 03:37:38;;;;;;;42.53;17.40;;;;;;;;;;5031210;28;20049;-76
2023/02/11 03:40:14;;;;;;;47.75;17.98;;;;;;;;;;5031389;28;20056;-78
2023/02/11 03:42:52;;;;;;;43.20;18.58;;;;;;;;;;5031487;28;20306;-78
2023/02/11 03:45:20;;;;;;;44.28;19.15;;;;;;;;;;5031456;28;20056;-79
2023/02/11 03:47:50;;;;;;;46.15;19.17;;;;;;;;;;5030296;28;20068;-79
2023/02/11 03:50:17;;;;;;;44.20;18.65;;;;;;;;;;5032250;28;20046;-79
2023/02/11 03:52:45;;;;;;;42.85;18.98;;;;;;;;;;5027976;28;20383;-79
2023/02/11 03:55:13;;;;;;;47.33;20.33;;;;;;;;;;5033661;28;20057;-76
2023/02/11 03:57:40;;;;;;;48.38;20.40;;;;;;;;;;5032616;28;20257;-77
2023/02/11 04:00:07;;;;;;;43.60;19.45;;;;;;;;;;5031100;28;20053;-78
2023/02/11 04:02:34;;;;;;;51.97;19.98;;;;;;;;;;5031509;28;20049;-77
2023/02/11 04:05:01;;;;;;;48.40;19.83;;;;;;;;;;5014286;28;20045;-78
2023/02/11 04:07:28;;;;;;;47.00;19.95;;;;;;;;;;5030883;28;20046;-77
2023/02/11 04:09:54;;;;;;;42.85;19.30;;;;;;;;;;5031032;28;20046;-78
2023/02/11 04:12:20;;;;;;;49.65;20.67;;;;;;;;;;5031720;28;20060;-77
2023/02/11 04:14:47;;;;;;;48.20;20.75;;;;;;;;;;5031653;28;20054;-79
2023/02/11 04:17:13;;;;;;;45.13;19.77;;;;;;;;;;5030781;28;20065;-76
2023/02/11 04:19:40;;;;;;;48.40;21.13;;;;;;;;;;5030829;28;20058;-78
2023/02/11 04:22:06;;;;;;;49.63;20.17;;;;;;;;;;5030516;28;20128;-77
2023/02/11 04:24:33;;;;;;;46.10;20.55;;;;;;;;;;5029780;28;20161;-77
2023/02/11 04:26:59;;;;;;;52.25;20.65;;;;;;;;;;5030687;28;20073;-76
2023/02/11 04:29:27;;;;;;;46.70;19.48;;;;;;;;;;5036419;28;20045;-78
2023/02/11 04:31:53;;;;;;;47.45;20.25;;;;;;;;;;5014580;28;20050;-77
2023/02/11 04:34:19;;;;;;;50.83;20.98;;;;;;;;;;5031259;28;20123;-77
2023/02/11 04:36:46;;;;;;;46.85;20.33;;;;;;;;;;5030025;28;20482;-77
2023/02/11 04:39:12;;;;;;;42.67;19.05;;;;;;;;;;5012919;28;20296;-77
2023/02/11 04:41:39;;;;;;;53.65;20.63;;;;;;;;;;5031593;28;20096;-79
2023/02/11 04:44:05;;;;;;;44.38;20.23;;;;;;;;;;5012927;28;20425;-79
2023/02/11 04:46:32;;;;;;;51.03;21.23;;;;;;;;;;5030249;28;20468;-78
2023/02/11 04:48:58;;;;;;;48.95;20.98;;;;;;;;;;5031432;28;20049;-78
2023/02/11 04:51:25;;;;;;;49.72;21.20;;;;;;;;;;5031482;28;20056;-78
2023/02/11 04:53:51;;;;;;;46.42;19.75;;;;;;;;;;5029306;28;20073;-78
2023/02/11 04:56:18;;;;;;;42.50;19.98;;;;;;;;;;5030275;28;20059;-79
2023/02/11 04:58:44;;;;;;;44.63;20.00;;;;;;;;;;5030743;28;20045;-77
2023/02/11 05:01:11;;;;;;;46.92;19.55;;;;;;;;;;5026841;28;20049;-79
2023/02/11 05:03:38;;;;;;;48.15;21.00;;;;;;;;;;5030149;28;20064;-78
2023/02/11 05:06:05;;;;;;;53.03;20.35;;;;;;;;;;5030669;28;20068;-77
2023/02/11 05:08:31;;;;;;;46.13;19.83;;;;;;;;;;5028284;28;20057;-78
2023/02/11 05:10:58;;;;;;;42.20;19.65;;;;;;;;;;5031462;28;20060;-78
2023/02/11 05:13:24;;;;;;;45.92;19.63;;;;;;;;;;5030545;28;20588;-78
2023/02/11 05:15:51;;;;;;;43.65;19.70;;;;;;;;;;5013260;28;20092;-78
2023/02/11 05:18:18;;;;;;;45.60;20.45;;;;;;;;;;5030767;28;20068;-78
2023/02/11 05:20:44;;;;;;;43.90;19.63;;;;;;;;;;5034385;28;20057;-77
2023/02/11 05:23:11;;;;;;;48.30;20.98;;;;;;;;;;5033229;28;20064;-79
2023/02/11 05:25:37;;;;;;;46.22;19.95;;;;;;;;;;5015391;28;20049;-78
2023/02/11 05:28:04;;;;;;;44.65;19.45;;;;;;;;;;5032458;28;20069;-76
2023/02/11 05:30:30;;;;;;;42.95;18.55;;;;;;;;;;5032379;28;20052;-76
2023/02/11 05:32:57;;;;;;;49.17;20.75;;;;;;;;;;5013903;28;20152;-77
2023/02/11 05:35:23;;;;;;;44.35;19.08;;;;;;;;;;5014784;28;20383;-77
2023/02/11 05:37:50;;;;;;;45.65;19.15;;;;;;;;;;5029723;28;20128;-77
2023/02/11 05:40:16;;;;;;;48.00;19.25;;;;;;;;;;5031044;28;20084;-77
2023/02/11 05:42:43;;;;;;;45.22;18.00;;;;;;;;;;5013106;28;20051;-77
2023/02/11 05:45:09;;;;;;;42.55;18.27;;;;;;;;;;5042829;28;20086;-79
2023/02/11 05:47:36;;;;;;;43.58;20.08;;;;;;;;;;5050520;28;20483;-76
2023/02/11 05:50:02;;;;;;;45.13;19.20;;;;;;;;;;5040170;28;20051;-77
2023/02/11 05:52:29;;;;;;;47.17;19.50;;;;;;;;;;5031083;28;20053;-77
2023/02/11 05:54:55;;;;;;;44.33;19.15;;;;;;;;;;5013452;28;20057;-77
2023/02/11 05:57:24;;;;;;;48.47;20.17;;;;;;;;;;5032139;28;20055;-79
2023/02/11 05:59:50;;;;;;;44.33;19.48;;;;;;;;;;5032027;28;20053;-77
2023/02/11 06:02:17;;;;;;;46.17;18.80;;;;;;;;;;5032187;28;20060;-79
2023/02/11 06:04:43;;;;;;;45.30;18.50;;;;;;;;;;5031516;28;20053;-78
2023/02/11 06:07:10;;;;;;;44.60;18.25;;;;;;;;;;5031586;28;20290;-78
2023/02/11 06:09:36;;;;;;;44.90;19.00;;;;;;;;;;5013490;28;20060;-79
2023/02/11 06:12:03;;;;;;;47.95;19.88;;;;;;;;;;5031276;28;20056;-78
2023/02/11 06:14:31;;;;;;;46.80;19.65;;;;;;;;;;5031715;28;20077;-78
2023/02/11 06:16:58;;;;;;;51.97;20.40;;;;;;;;;;5030895;28;20049;-77
2023/02/11 06:19:24;;;;;;;49.50;20.08;;;;;;;;;;5030574;28;20084;-78
2023/02/11 06:21:52;;;;;;;49.13;19.88;;;;;;;;;;5030964;28;20536;-76
2023/02/11 06:24:18;;;;;;;47.55;20.48;;;;;;;;;;5038126;28;20059;-78
2023/02/11 06:27:05;;;;;;;47.08;19.58;;;;;;;;;;5029417;28;20149;-77
2023/02/11 06:29:31;;;;;;;49.05;19.90;;;;;;;;;;5031699;28;20064;-77
2023/02/11 06:31:57;;;;;;;43.63;20.15;;;;;;;;;;5030865;28;20053;-77
2023/02/11 06:34:27;;;;;;;45.65;19.83;;;;;;;;;;5030641;28;20054;-78
2023/02/11 06:36:53;;;;;;;49.13;20.25;;;;;;;;;;5030001;28;20132;-73
2023/02/11 06:39:19;;;;;;;47.80;19.85;;;;;;;;;;5029280;28;20058;-78
2023/02/11 06:41:46;;;;;;;49.80;19.85;;;;;;;;;;5023785;28;20575;-78
2023/02/11 06:44:12;;;;;;;46.92;20.60;;;;;;;;;;5027105;28;20113;-77
2023/02/11 06:46:39;;;;;;;48.28;19.23;;;;;;;;;;5009978;28;20095;-78
2023/02/11 06:49:05;;;;;;;54.35;20.90;;;;;;;;;;5028032;28;20050;-78
2023/02/11 06:51:31;;;;;;;47.00;20.50;;;;;;;;;;5031892;28;20148;-77
2023/02/11 06:53:58;;;;;;;45.28;19.58;;;;;;;;;;5033295;28;20393;-77
2023/02/11 06:56:26;;;;;;;49.03;21.17;;;;;;;;;;5008931;28;20045;-77
2023/02/11 06:58:54;;;;;;;49.10;19.55;;;;;;;;;;5029308;28;20068;-79
2023/02/11 07:01:21;;;;;;;51.30;20.83;;;;;;;;;;5017454;28;20107;-79
2023/02/11 07:03:48;;;;;;;44.25;20.33;;;;;;;;;;5036810;28;20152;-78
2023/02/11 07:06:16;;;;;;;48.30;20.05;;;;;;;;;;5039704;28;20148;-79
2023/02/11 07:08:44;;;;;;;48.30;20.98;;;;;;;;;;5044261;28;20503;-79
2023/02/11 07:11:12;;;;;;;49.05;20.50;;;;;;;;;;5052352;28;20053;-79
2023/02/11 07:13:39;;;;;;;50.92;20.63;;;;;;;;;;5047237;28;20177;-78
2023/02/11 07:16:06;;;;;;;49.05;20.98;;;;;;;;;;5030662;28;20140;-78
2023/02/11 07:18:33;;;;;;;45.25;20.55;;;;;;;;;;5029074;28;20507;-78
2023/02/11 07:21:03;;;;;;;54.60;20.75;;;;;;;;;;5012859;28;20132;-78
2023/02/11 07:23:29;;;;;;;51.20;20.85;;;;;;;;;;5032262;28;20060;-78
2023/02/11 07:25:55;;;;;;;48.40;20.38;;;;;;;;;;5019811;28;20046;-76
2023/02/11 07:28:22;;;;;;;48.92;20.67;;;;;;;;;;5021191;28;20053;-78
2023/02/11 07:30:48;;;;;;;46.88;19.98;;;;;;;;;;5041000;28;20065;-79
2023/02/11 07:33:15;;;;;;;51.92;21.10;;;;;;;;;;5041278;28;20117;-79
2023/02/11 07:35:41;;;;;;;51.50;21.52;;;;;;;;;;5023561;28;20436;-80
2023/02/11 07:38:08;;;;;;;49.25;21.75;;;;;;;;;;5038851;28;20057;-79
2023/02/11 07:40:35;;;;;;;44.60;21.02;;;;;;;;;;5039987;28;20055;-78
2023/02/11 07:43:01;;;;;;;51.58;22.05;;;;;;;;;;5012133;28;20046;-78
2023/02/11 07:45:28;;;;;;;54.03;22.58;;;;;;;;;;5029825;28;20436;-79
2023/02/11 07:47:54;;;;;;;56.45;22.20;;;;;;;;;;5029764;28;20053;-79
2023/02/11 07:50:21;;;;;;;50.10;22.50;;;;;;;;;;5034578;28;20053;-78
2023/02/11 07:52:47;;;;;;;55.83;22.67;;;;;;;;;;5037073;28;20050;-78
2023/02/11 07:55:13;;;;;;;51.17;22.08;;;;;;;;;;5034160;28;20448;-79
2023/02/11 07:57:40;;;;;;;50.22;20.98;;;;;;;;;;5031843;28;20117;-79
2023/02/11 08:00:07;;;;;;;48.08;21.05;;;;;;;;;;5014714;28;20055;-79
2023/02/11 08:02:33;;;;;;;50.90;21.33;;;;;;;;;;5031817;28;20140;-78
2023/02/11 08:05:00;;;;;;;62.63;23.13;;;;;;;;;;5049801;28;20148;-78
2023/02/11 08:07:28;;;;;;;50.10;21.08;;;;;;;;;;5050642;28;20515;-79
2023/02/11 08:09:54;;;;;;;53.13;22.30;;;;;;;;;;5037294;28;20517;-78
2023/02/11 08:12:21;;;;;;;54.22;22.25;;;;;;;;;;5029265;28;20053;-79
2023/02/11 08:14:47;;;;;;;54.92;22.77;;;;;;;;;;5020223;28;20498;-78
2023/02/11 08:17:13;;;;;;;53.40;23.58;;;;;;;;;;5029479;28;20133;-79
2023/02/11 08:19:40;;;;;;;58.05;23.45;;;;;;;;;;5030095;28;20125;-78
2023/02/11 08:22:06;;;;;;;57.22;23.27;;;;;;;;;;5031238;28;20057;-77
2023/02/11 08:24:33;;;;;;;56.65;24.70;;;;;;;;;;5028933;28;20053;-78
2023/02/11 08:26:59;;;;;;;57.78;25.20;;;;;;;;;;5032079;28;20042;-79
2023/02/11 08:29:26;;;;;;;56.20;24.15;;;;;;;;;;5032901;28;20136;-79
2023/02/11 08:31:52;;;;;;;59.60;23.38;;;;;;;;;;5032291;28;20056;-78
2023/02/11 08:34:18;;;;;;;58.67;25.27;;;;;;;;;;5032829;28;20049;-80
2023/02/11 08:36:46;;;;;;;56.13;24.17;;;;;;;;;;5014374;28;20556;-79
2023/02/11 08:39:14;;;;;;;56.13;24.38;;;;;;;;;;5013011;28;20057;-80
2023/02/11 08:41:49;;;;;;;57.17;22.65;;;;;;;;;;5017201;28;20068;-80
2023/02/11 08:44:16;;;;;;;55.17;23.38;;;;;;;;;;5033017;28;20694;-78
2023/02/11 08:46:43;;;;;;;50.55;22.38;;;;;;;;;;5015510;28;20157;-78
2023/02/11 08:49:09;;;;;;;53.13;22.45;;;;;;;;;;5030150;28;20045;-78
2023/02/11 08:51:36;;;;;;;54.60;23.77;;;;;;;;;;5030660;28;20075;-79
2023/02/11 08:54:02;;;;;;;62.25;23.85;;;;;;;;;;5031586;28;20136;-78
2023/02/11 08:56:31;;;;;;;60.35;24.95;;;;;;;;;;5013035;28;20090;-78
2023/02/11 08:58:57;;;;;;;53.28;23.23;;;;;;;;;;5031604;28;20057;-78
2023/02/11 09:01:25;;;;;;;58.13;23.55;;;;;;;;;;5032713;28;20057;-78
2023/02/11 09:03:52;;;;;;;62.05;24.30;;;;;;;;;;5032291;28;20061;-77
2023/02/11 09:06:19;;;;;;;59.08;25.60;;;;;;;;;;5029749;28;20081;-79
2023/02/11 09:08:48;;;;;;;59.08;24.10;;;;;;;;;;5028666;28;20060;-79
2023/02/11 09:11:15;;;;;;;55.78;24.75;;;;;;;;;;5030362;28;20038;-77
2023/02/11 09:13:42;;;;;;;64.53;24.98;;;;;;;;;;5024355;28;20759;-77
2023/02/11 09:16:14;;;;;;;59.88;25.05;;;;;;;;;;5027180;28;20055;-77
2023/02/11 09:18:40;;;;;;;62.55;23.90;;;;;;;;;;5027516;28;20080;-77
2023/02/11 09:21:08;;;;;;;58.58;23.35;;;;;;;;;;5027249;28;20430;-77
2023/02/11 09:23:35;;;;;;;58.08;24.95;;;;;;;;;;5009623;28;20446;-78
2023/02/11 09:26:05;;;;;;;58.80;25.10;;;;;;;;;;5009984;28;20063;-77
2023/02/11 09:28:34;;;;;;;57.75;25.25;;;;;;;;;;5027619;28;20049;-79
2023/02/11 09:31:05;;;;;;;58.15;24.63;;;;;;;;;;5028504;28;20441;-80
2023/02/11 09:33:32;;;;;;;56.63;24.23;;;;;;;;;;5027088;28;20083;-78
2023/02/11 09:36:03;;;;;;;57.63;24.17;;;;;;;;;;5029561;28;20449;-79
2023/02/11 09:38:30;;;;;;;56.80;23.13;;;;;;;;;;5008459;28;20059;-78
2023/02/11 09:40:56;;;;;;;56.53;24.50;;;;;;;;;;5029398;28;20049;-78
2023/02/11 09:43:35;;;;;;;55.97;23.92;;;;;;;;;;5013619;28;20065;-78
2023/02/11 09:46:03;;;;;;;58.80;23.55;;;;;;;;;;5029234;28;20108;-78
2023/02/11 09:48:35;;;;;;;58.58;24.02;;;;;;;;;;5012720;28;20099;-78
2023/02/11 09:51:02;;;;;;;56.28;23.08;;;;;;;;;;5026146;28;20059;-78
2023/02/11 09:53:31;;;;;;;55.00;24.33;;;;;;;;;;5006503;28;20069;-77
2023/02/11 09:55:58;;;;;;;62.00;24.02;;;;;;;;;;5026867;28;20061;-77
2023/02/11 09:58:26;;;;;;;50.47;22.67;;;;;;;;;;5024888;28;20136;-78
2023/02/11 10:01:07;;;;;;;54.30;23.10;;;;;;;;;;5027183;28;20053;-78
2023/02/11 10:03:48;;;;;;;55.45;24.10;;;;;;;;;;5027299;28;20053;-78
2023/02/11 10:06:35;;;;;;;56.42;22.85;;;;;;;;;;5027771;28;20061;-78
2023/02/11 10:09:20;;;;;;;54.60;23.95;;;;;;;;;;5030093;28;20057;-79
2023/02/11 10:12:06;;;;;;;55.03;24.60;;;;;;;;;;5027756;28;20072;-79
2023/02/11 10:14:47;;;;;;;54.10;23.58;;;;;;;;;;5029587;28;20050;-79
2023/02/11 10:17:33;;;;;;;54.15;23.48;;;;;;;;;;5028218;28;20060;-81
2023/02/11 10:20:11;;;;;;;58.20;23.83;;;;;;;;;;5011453;28;20539;-79
2023/02/11 10:22:45;;;;;;;58.83;25.13;;;;;;;;;;5028822;28;20061;-79
2023/02/11 10:25:25;;;;;;;62.33;25.70;;;;;;;;;;5026717;28;20333;-78
2023/02/11 10:27:54;;;;;;;58.03;24.90;;;;;;;;;;5027309;28;20049;-79
2023/02/11 10:30:32;;;;;;;57.72;25.77;;;;;;;;;;5027775;28;20058;-78
2023/02/11 10:32:58;;;;;;;56.75;24.83;;;;;;;;;;5030746;28;20049;-78
2023/02/11 10:35:26;;;;;;;62.20;24.70;;;;;;;;;;5014049;28;20068;-79
2023/02/11 10:37:53;;;;;;;59.90;25.20;;;;;;;;;;5026748;28;20528;-80
2023/02/11 10:40:21;;;;;;;62.95;25.48;;;;;;;;;;5011389;28;20056;-79
2023/02/11 10:42:49;;;;;;;63.38;25.05;;;;;;;;;;5027405;28;20057;-79
2023/02/11 10:45:31;;;;;;;59.97;24.60;;;;;;;;;;5018600;28;20057;-78
2023/02/11 10:47:59;;;;;;;52.63;23.00;;;;;;;;;;5010571;28;20049;-79
2023/02/11 10:50:26;;;;;;;57.38;24.80;;;;;;;;;;5029813;28;20049;-79
2023/02/11 10:53:09;;;;;;;55.72;23.90;;;;;;;;;;5016388;28;20407;-78
2023/02/11 10:55:36;;;;;;;60.72;24.05;;;;;;;;;;5033210;28;20057;-80
2023/02/11 10:58:03;;;;;;;54.10;23.90;;;;;;;;;;5009650;28;20050;-79
2023/02/11 11:00:37;;;;;;;52.13;23.48;;;;;;;;;;5026473;28;20056;-79
2023/02/11 11:03:06;;;;;;;51.03;22.40;;;;;;;;;;5027751;28;20443;-79
2023/02/11 11:05:54;;;;;;;51.83;22.58;;;;;;;;;;5027299;28;20580;-79
2023/02/11 11:08:36;;;;;;;47.70;20.90;;;;;;;;;;5011152;28;20045;-79
2023/02/11 11:11:05;;;;;;;49.85;22.35;;;;;;;;;;5028684;28;20050;-79
2023/02/11 11:13:35;;;;;;;50.72;22.40;;;;;;;;;;5025587;28;20967;-79
2023/02/11 11:16:14;;;;;;;54.13;22.40;;;;;;;;;;5015789;28;20070;-79
2023/02/11 11:18:42;;;;;;;54.42;21.85;;;;;;;;;;5023845;28;20081;-79
2023/02/11 11:21:12;;;;;;;53.00;22.23;;;;;;;;;;4998738;28;20313;-79
2023/02/11 11:23:38;;;;;;;55.15;23.17;;;;;;;;;;5027194;28;20050;-79
2023/02/11 11:26:12;;;;;;;50.70;22.65;;;;;;;;;;5046988;28;20057;-79
2023/02/11 11:28:39;;;;;;;55.40;22.77;;;;;;;;;;5033719;28;20068;-79
2023/02/11 11:31:11;;;;;;;52.47;22.35;;;;;;;;;;5046103;28;20033;-80
2023/02/11 11:33:40;;;;;;;55.08;22.55;;;;;;;;;;5033144;28;20053;-77
2023/02/11 11:36:07;;;;;;;52.63;22.83;;;;;;;;;;5031952;28;20061;-78
2023/02/11 11:38:35;;;;;;;47.60;21.98;;;;;;;;;;5022919;28;20418;-78
2023/02/11 11:41:31;;;;;;;51.78;21.77;;;;;;;;;;5030367;28;20064;-78
2023/02/11 11:43:57;;;;;;;49.70;21.10;;;;;;;;;;5020537;28;20149;-78
2023/02/11 11:46:26;;;;;;;50.28;21.42;;;;;;;;;;5033182;28;20065;-78
2023/02/11 11:48:55;;;;;;;51.63;23.33;;;;;;;;;;5008898;28;20564;-78
2023/02/11 11:51:22;;;;;;;53.90;22.58;;;;;;;;;;5021448;28;20185;-79
2023/02/11 11:53:58;;;;;;;51.30;22.45;;;;;;;;;;5028503;28;20069;-78
2023/02/11 11:56:27;;;;;;;51.80;22.25;;;;;;;;;;5027615;28;20140;-78
2023/02/11 11:58:53;;;;;;;45.10;20.23;;;;;;;;;;5010915;28;20068;-78
2023/02/11 12:01:23;;;;;;;54.00;22.25;;;;;;;;;;5029967;28;20171;-79
2023/02/11 12:04:08;;;;;;;53.50;22.25;;;;;;;;;;5028758;28;20512;-79
2023/02/11 12:06:38;;;;;;;51.60;23.10;;;;;;;;;;5047220;28;20398;-79
2023/02/11 12:09:22;;;;;;;53.97;22.42;;;;;;;;;;5043652;28;20049;-79
2023/02/11 12:12:01;;;;;;;52.33;21.98;;;;;;;;;;5031017;28;20049;-79
2023/02/11 12:14:28;;;;;;;48.70;21.63;;;;;;;;;;5029515;28;20064;-78
2023/02/11 12:16:54;;;;;;;48.65;22.98;;;;;;;;;;5027188;28;20065;-78
2023/02/11 12:19:36;;;;;;;56.15;24.30;;;;;;;;;;5026491;28;20053;-79
2023/02/11 12:22:05;;;;;;;49.22;22.00;;;;;;;;;;5027773;28;20227;-78
2023/02/11 12:24:31;;;;;;;51.72;22.73;;;;;;;;;;5027952;28;20098;-78
2023/02/11 12:27:04;;;;;;;55.45;22.02;;;;;;;;;;5025647;28;20591;-78
2023/02/11 12:29:33;;;;;;;52.35;23.20;;;;;;;;;;5028639;28;20049;-79
2023/02/11 12:32:06;;;;;;;49.40;23.13;;;;;;;;;;5027057;28;20565;-79
2023/02/11 12:34:33;;;;;;;49.88;22.67;;;;;;;;;;5027098;28;20049;-79
2023/02/11 12:37:13;;;;;;;47.75;21.70;;;;;;;;;;5026613;28;20277;-79
2023/02/11 12:39:44;;;;;;;51.90;22.73;;;;;;;;;;5019976;28;20540;-79
2023/02/11 12:45:08;;;;;;;53.03;22.63;;;;;;;;;;5028751;28;20560;-79
2023/02/11 12:47:44;;;;;;;49.90;22.02;;;;;;;;;;5008420;28;20129;-79
2023/02/11 12:50:22;;;;;;;53.50;22.92;;;;;;;;;;5027863;28;20045;-80
2023/02/11 12:52:49;;;;;;;53.60;23.17;;;;;;;;;;5026939;28;20057;-79
2023/02/11 12:55:15;;;;;;;49.10;22.13;;;;;;;;;;5026705;28;20056;-79
2023/02/11 12:57:43;;;;;;;54.58;23.30;;;;;;;;;;5026632;28;20317;-79
2023/02/11 13:00:22;;;;;;;53.60;23.33;;;;;;;;;;5023089;28;20045;-79
2023/02/11 13:03:17;;;;;;;54.72;24.30;;;;;;;;;;5013692;28;20399;-79
2023/02/11 13:05:50;;;;;;;54.50;23.38;;;;;;;;;;5011751;28;20065;-80
2023/02/11 13:08:16;;;;;;;51.60;22.40;;;;;;;;;;5024519;28;20132;-80
2023/02/11 13:10:46;;;;;;;47.35;21.55;;;;;;;;;;5042995;28;20048;-79
2023/02/11 13:13:17;;;;;;;48.20;21.30;;;;;;;;;;5007924;28;20048;-80
2023/02/11 13:16:06;;;;;;;50.25;22.77;;;;;;;;;;5025584;28;20061;-79
2023/02/11 13:18:36;;;;;;;53.78;22.25;;;;;;;;;;5046266;28;20057;-80
2023/02/11 13:21:23;;;;;;;58.85;22.90;;;;;;;;;;5032051;28;20053;-79
2023/02/11 13:24:01;;;;;;;51.20;21.95;;;;;;;;;;5025682;28;20068;-77
2023/02/11 13:26:31;;;;;;;50.00;22.10;;;;;;;;;;5025151;28;20175;-79
2023/02/11 13:28:57;;;;;;;54.15;22.30;;;;;;;;;;5010042;28;20057;-78
2023/02/11 13:31:26;;;;;;;57.08;21.70;;;;;;;;;;5028282;28;20053;-78
2023/02/11 13:33:53;;;;;;;47.85;21.77;;;;;;;;;;5011089;28;20087;-81
2023/02/11 13:36:26;;;;;;;50.80;22.30;;;;;;;;;;5054947;28;20355;-75
2023/02/11 13:38:55;;;;;;;48.88;21.83;;;;;;;;;;5041769;28;20253;-76
2023/02/11 13:41:25;;;;;;;50.17;21.80;;;;;;;;;;5020479;28;20125;-76
2023/02/11 13:43:58;;;;;;;48.53;21.80;;;;;;;;;;5020609;28;20059;-78
2023/02/11 13:46:25;;;;;;;49.95;22.13;;;;;;;;;;5036691;28;20053;-77
2023/02/11 13:48:52;;;;;;;48.85;21.52;;;;;;;;;;5038262;28;20068;-78
2023/02/11 13:51:39;;;;;;;47.17;20.88;;;;;;;;;;5036129;28;20072;-79
2023/02/11 13:54:06;;;;;;;50.20;21.92;;;;;;;;;;5038944;28;20109;-78
2023/02/11 13:56:37;;;;;;;52.22;22.83;;;;;;;;;;5058164;28;20049;-79
2023/02/11 13:59:22;;;;;;;50.45;21.02;;;;;;;;;;5036456;28;20049;-79
2023/02/11 14:10:47;;;;;;;50.90;20.13;;;;;;;;;;5020970;28;20151;-79
2023/02/11 14:13:21;;;;;;;43.05;20.60;;;;;;;;;;5027209;28;20103;-79
2023/02/11 14:15:47;;;;;;;43.72;20.02;;;;;;;;;;5025390;28;20057;-79
2023/02/11 14:18:32;;;;;;;50.70;21.08;;;;;;;;;;5024778;28;20077;-78
2023/02/11 14:21:12;;;;;;;53.88;20.80;;;;;;;;;;5027631;28;20060;-78
2023/02/11 14:23:38;;;;;;;43.13;19.77;;;;;;;;;;5013124;28;20058;-78
2023/02/11 14:26:16;;;;;;;40.40;19.40;;;;;;;;;;5025372;28;20068;-78
2023/02/11 14:28:51;;;;;;;41.38;19.27;;;;;;;;;;5037489;28;20057;-78
2023/02/11 14:31:21;;;;;;;48.28;20.88;;;;;;;;;;5038362;28;20049;-79
2023/02/11 14:33:54;;;;;;;43.95;20.00;;;;;;;;;;5037065;28;20069;-78
2023/02/11 14:36:42;;;;;;;49.30;19.70;;;;;;;;;;5019245;28;20049;-78
2023/02/11 14:39:08;;;;;;;46.65;20.15;;;;;;;;;;5018701;28;20053;-78
2023/02/11 14:41:38;;;;;;;46.33;19.92;;;;;;;;;;5044473;28;20432;-78
2023/02/11 14:44:11;;;;;;;41.92;19.55;;;;;;;;;;5017428;28;20049;-78
2023/02/11 14:46:42;;;;;;;43.20;18.95;;;;;;;;;;5012901;28;20083;-79